Zuni, New Mexico
Current Conditions -  °F | °C
As of 11:53 PM on Tuesday 21 Oct 2014 (Local Time) from KGUP Reporting Station
Clear Clear  
Wind Chill: 47°   Ceiling: Unl
Heat Index: 47°   Visibility: 10mi
Dew Point: 42°   Wind: 3mph
Humidity: 83%   Direction: 60°ENE
Pressure: 30.14"   Gusts: NA
Location:  35.07°N, 108.85°W
Report Text: KGUP 220553Z AUTO 06003KT 10SM CLR 08/06 A3014 RMK AO2 SLP118 60000 T00830056 10161 20083 51007
Loading
Personal Weather Stations






























Interactive Weather Map
Tropical Storm Tracking
New forecast layout! Learn more

10-Day Weather Forecast

Advertisements
Track Severe Weather on mobile